createdAt,value
2018-09-10T00:00:44.958Z,99879.00
2018-09-10T00:02:49.468Z,99880.00
2018-09-10T00:04:54.006Z,99884.00
2018-09-10T00:06:58.492Z,99876.00
2018-09-10T00:09:03.024Z,99881.00
2018-09-10T00:11:07.566Z,99882.00
2018-09-10T00:13:11.999Z,99886.00
2018-09-10T00:15:16.582Z,99888.00
2018-09-10T00:17:21.062Z,99883.00
2018-09-10T00:19:25.514Z,99884.00
2018-09-10T00:21:30.130Z,99880.00
2018-09-10T00:23:34.596Z,99877.00
2018-09-10T00:25:40.182Z,99876.00
2018-09-10T00:27:44.630Z,99872.00
2018-09-10T00:29:49.329Z,99871.00
2018-09-10T00:31:53.857Z,99874.00
2018-09-10T00:33:58.298Z,99885.00
2018-09-10T00:36:02.758Z,99880.00
2018-09-10T00:38:07.203Z,99876.00
2018-09-10T00:40:11.671Z,99879.00
2018-09-10T00:42:16.382Z,99877.00
2018-09-10T00:44:20.825Z,99880.00
2018-09-10T00:46:25.289Z,99873.00
2018-09-10T00:48:29.755Z,99879.00
2018-09-10T00:50:34.357Z,99873.00
2018-09-10T00:52:38.799Z,99876.00
2018-09-10T00:54:43.266Z,99878.00
2018-09-10T00:56:47.734Z,99874.00
2018-09-10T00:58:52.689Z,99873.00
2018-09-10T01:00:57.236Z,99870.00
2018-09-10T01:03:01.664Z,99878.00
2018-09-10T01:05:06.231Z,99877.00
2018-09-10T01:07:10.721Z,99874.00
2018-09-10T01:09:15.158Z,99871.00
2018-09-10T01:11:21.266Z,99881.00
2018-09-10T01:13:25.686Z,99873.00
2018-09-10T01:15:30.146Z,99870.00
2018-09-10T01:17:34.678Z,99870.00
2018-09-10T01:19:39.154Z,99873.00
2018-09-10T01:21:43.614Z,99870.00
2018-09-10T01:23:48.067Z,99874.00
2018-09-10T01:25:52.547Z,99866.00
2018-09-10T01:27:57.075Z,99878.00
2018-09-10T01:30:01.532Z,99881.00
2018-09-10T01:32:06.023Z,99866.00
2018-09-10T01:34:15.787Z,99877.00
2018-09-10T01:36:20.859Z,99861.00
2018-09-10T01:38:25.350Z,99865.00
2018-09-10T01:40:29.841Z,99863.00
2018-09-10T01:42:34.425Z,99865.00
2018-09-10T01:44:38.854Z,99856.00
2018-09-10T01:46:43.445Z,99855.00
2018-09-10T01:48:48.819Z,99857.00
2018-09-10T01:50:53.260Z,99856.00
2018-09-10T01:52:57.876Z,99862.00
2018-09-10T01:55:02.378Z,99856.00
2018-09-10T01:57:06.867Z,99859.00
2018-09-10T01:59:11.361Z,99854.00
2018-09-10T02:01:16.013Z,99862.00
2018-09-10T02:03:20.769Z,99869.00
2018-09-10T02:05:25.262Z,99869.00
2018-09-10T02:07:29.778Z,99864.00
2018-09-10T02:09:34.842Z,99871.00
2018-09-10T02:11:39.354Z,99869.00
2018-09-10T02:13:43.875Z,99857.00
2018-09-10T02:15:52.545Z,99876.00
2018-09-10T02:17:57.053Z,99862.00
2018-09-10T02:20:01.499Z,99874.00
2018-09-10T02:22:06.249Z,99863.00
2018-09-10T02:24:10.706Z,99866.00
2018-09-10T02:26:15.190Z,99866.00
2018-09-10T02:28:19.670Z,99860.00
2018-09-10T02:30:24.324Z,99860.00
2018-09-10T02:32:28.855Z,99863.00
2018-09-10T02:34:33.316Z,99852.00
2018-09-10T02:36:37.824Z,99847.00
2018-09-10T02:38:42.317Z,99841.00
2018-09-10T02:40:46.907Z,99848.00
2018-09-10T02:42:51.387Z,99839.00
2018-09-10T02:44:55.899Z,99845.00
2018-09-10T02:47:00.411Z,99843.00
2018-09-10T02:49:05.055Z,99849.00
2018-09-10T02:51:09.600Z,99837.00
2018-09-10T02:53:15.193Z,99840.00
2018-09-10T02:55:20.303Z,99831.00
2018-09-10T02:57:24.944Z,99830.00
2018-09-10T02:59:29.460Z,99836.00
2018-09-10T03:01:35.043Z,99835.00
2018-09-10T03:03:39.575Z,99837.00
2018-09-10T03:05:44.058Z,99839.00
2018-09-10T03:07:48.730Z,99836.00
2018-09-10T03:09:53.535Z,99835.00
2018-09-10T03:11:57.948Z,99830.00
2018-09-10T03:14:02.387Z,99833.00
2018-09-10T03:16:06.910Z,99835.00
2018-09-10T03:18:11.351Z,99842.00
2018-09-10T03:20:15.783Z,99840.00
2018-09-10T03:22:20.559Z,99837.00
2018-09-10T03:24:25.106Z,99835.00
2018-09-10T03:26:29.613Z,99837.00
2018-09-10T03:28:35.190Z,99830.00
2018-09-10T03:30:39.748Z,99839.00
2018-09-10T03:32:44.637Z,99833.00
2018-09-10T03:34:49.303Z,99840.00
2018-09-10T03:36:54.168Z,99844.00
2018-09-10T03:38:58.702Z,99846.00
2018-09-10T03:41:03.174Z,99843.00
2018-09-10T03:43:07.633Z,99846.00
2018-09-10T03:45:12.103Z,99834.00
2018-09-10T03:47:16.642Z,99830.00
2018-09-10T03:49:21.143Z,99842.00
2018-09-10T03:51:25.656Z,99837.00
2018-09-10T03:53:30.409Z,99847.00
2018-09-10T03:55:35.813Z,99845.00
2018-09-10T03:57:40.704Z,99839.00
2018-09-10T03:59:45.354Z,99841.00
2018-09-10T04:01:50.098Z,99841.00
2018-09-10T04:03:55.662Z,99843.00
2018-09-10T04:06:00.139Z,99848.00
2018-09-10T04:08:04.695Z,99848.00
2018-09-10T04:10:09.215Z,99838.00
2018-09-10T04:12:13.759Z,99848.00
2018-09-10T04:14:18.186Z,99847.00
2018-09-10T04:16:22.732Z,99845.00
2018-09-10T04:18:27.839Z,99847.00
2018-09-10T04:20:32.594Z,99854.00
2018-09-10T04:22:37.407Z,99854.00
2018-09-10T04:24:41.979Z,99850.00
2018-09-10T04:26:46.447Z,99851.00
2018-09-10T04:28:50.911Z,99861.00
2018-09-10T04:30:55.982Z,99867.00
2018-09-10T04:33:00.507Z,99861.00
2018-09-10T04:35:05.372Z,99873.00
2018-09-10T04:37:09.862Z,99868.00
2018-09-10T04:39:14.323Z,99873.00
2018-09-10T04:41:18.808Z,99880.00
2018-09-10T04:43:23.235Z,99882.00
2018-09-10T04:45:27.743Z,99874.00
2018-09-10T04:47:32.258Z,99878.00
2018-09-10T04:49:36.707Z,99888.00
2018-09-10T04:51:41.175Z,99899.00
2018-09-10T04:53:45.610Z,99892.00
2018-09-10T04:55:50.040Z,99886.00
2018-09-10T04:57:54.554Z,99896.00
2018-09-10T04:59:59.046Z,99893.00
2018-09-10T05:02:03.556Z,99895.00
2018-09-10T05:04:08.053Z,99897.00
2018-09-10T05:06:12.555Z,99899.00
2018-09-10T05:08:16.976Z,99894.00
2018-09-10T05:10:21.455Z,99890.00
2018-09-10T05:12:25.949Z,99892.00
2018-09-10T05:14:30.388Z,99892.00
2018-09-10T05:16:34.883Z,99894.00
2018-09-10T05:18:39.344Z,99889.00
2018-09-10T05:20:43.819Z,99885.00
2018-09-10T05:22:48.296Z,99888.00
2018-09-10T05:24:52.743Z,99896.00
2018-09-10T05:26:57.211Z,99897.00
2018-09-10T05:29:01.730Z,99915.00
2018-09-10T05:31:06.282Z,99909.00
2018-09-10T05:33:10.785Z,99903.00
2018-09-10T05:35:16.370Z,99910.00
2018-09-10T05:37:20.881Z,99917.00
2018-09-10T05:39:25.366Z,99910.00
2018-09-10T05:41:30.080Z,99911.00
2018-09-10T05:43:34.471Z,99911.00
2018-09-10T05:45:38.995Z,99910.00
2018-09-10T05:47:43.750Z,99904.00
2018-09-10T05:49:48.210Z,99912.00
2018-09-10T05:51:53.531Z,99905.00
2018-09-10T05:53:58.070Z,99904.00
2018-09-10T05:56:02.529Z,99908.00
2018-09-10T05:58:07.040Z,99913.00
2018-09-10T06:00:12.423Z,99906.00
2018-09-10T06:02:18.461Z,99908.00
2018-09-10T06:04:23.155Z,99909.00
2018-09-10T06:06:27.586Z,99897.00
2018-09-10T06:08:32.048Z,99907.00
2018-09-10T06:10:37.096Z,99922.00
2018-09-10T06:12:41.655Z,99915.00
2018-09-10T06:14:46.083Z,99917.00
2018-09-10T06:16:50.681Z,99926.00
2018-09-10T06:18:55.149Z,99921.00
2018-09-10T06:20:59.624Z,99930.00
2018-09-10T06:23:04.207Z,99926.00
2018-09-10T06:25:08.687Z,99937.00
2018-09-10T06:27:13.155Z,99938.00
2018-09-10T06:29:17.642Z,99936.00
2018-09-10T06:31:22.226Z,99946.00
2018-09-10T06:33:27.419Z,99952.00
2018-09-10T06:35:31.996Z,99943.00
2018-09-10T06:37:37.375Z,99939.00
2018-09-10T06:39:41.820Z,99933.00
2018-09-10T06:41:46.296Z,99946.00
2018-09-10T06:43:51.035Z,99942.00
2018-09-10T06:45:55.492Z,99946.00
2018-09-10T06:48:00.494Z,99952.00
2018-09-10T06:50:05.186Z,99962.00
2018-09-10T06:52:09.885Z,99968.00
2018-09-10T06:54:17.265Z,99975.00
2018-09-10T06:56:23.731Z,99972.00
2018-09-10T06:58:28.498Z,99961.00
2018-09-10T07:00:33.044Z,99960.00
2018-09-10T07:02:37.899Z,99965.00
2018-09-10T07:04:42.364Z,99950.00
2018-09-10T07:06:46.859Z,99946.00
2018-09-10T07:08:51.339Z,99924.00
2018-09-10T07:10:55.786Z,99922.00
2018-09-10T07:13:00.311Z,99924.00
2018-09-10T07:15:04.980Z,99916.00
2018-09-10T07:17:09.449Z,99919.00
2018-09-10T07:19:13.916Z,99917.00
2018-09-10T07:21:18.631Z,99921.00
2018-09-10T07:23:23.327Z,99925.00
2018-09-10T07:25:27.796Z,99931.00
2018-09-10T07:27:32.439Z,99939.00
2018-09-10T07:29:37.742Z,99944.00
2018-09-10T07:31:42.178Z,99950.00
2018-09-10T07:33:47.518Z,99950.00
2018-09-10T07:35:51.951Z,99962.00
2018-09-10T07:37:57.553Z,99959.00
2018-09-10T07:40:02.893Z,99950.00
2018-09-10T07:42:07.482Z,99939.00
2018-09-10T07:44:12.067Z,99950.00
2018-09-10T07:46:17.658Z,99951.00
2018-09-10T07:48:22.115Z,99940.00
2018-09-10T07:50:26.572Z,99936.00
2018-09-10T07:52:31.002Z,99938.00
2018-09-10T07:54:35.509Z,99932.00
2018-09-10T07:56:40.018Z,99928.00
2018-09-10T07:58:44.598Z,99944.00
2018-09-10T08:00:49.273Z,99947.00
2018-09-10T08:02:53.742Z,99952.00
2018-09-10T08:04:58.239Z,99955.00
2018-09-10T08:07:02.682Z,99950.00
2018-09-10T08:09:09.183Z,99942.00
2018-09-10T08:11:13.963Z,99955.00
2018-09-10T08:13:18.450Z,99951.00
2018-09-10T08:15:22.928Z,99957.00
2018-09-10T08:17:27.363Z,99958.00
2018-09-10T08:19:32.226Z,99968.00
2018-09-10T08:21:36.907Z,99967.00
2018-09-10T08:23:41.610Z,99976.00
2018-09-10T08:25:46.351Z,99973.00
2018-09-10T08:27:51.303Z,99981.00
2018-09-10T08:29:56.194Z,99973.00
2018-09-10T08:32:01.027Z,99968.00
2018-09-10T08:34:05.544Z,99959.00
2018-09-10T08:36:09.990Z,99971.00
2018-09-10T08:38:14.489Z,99965.00
2018-09-10T08:40:19.711Z,99976.00
2018-09-10T08:42:24.607Z,99980.00
2018-09-10T08:44:30.694Z,99988.00
2018-09-10T08:46:37.591Z,99994.00
2018-09-10T08:48:44.409Z,99993.00
2018-09-10T08:50:51.592Z,99987.00
2018-09-10T08:52:56.071Z,99990.00
2018-09-10T08:55:01.331Z,99983.00
2018-09-10T08:57:05.860Z,99982.00
2018-09-10T08:59:10.342Z,99976.00
2018-09-10T09:01:14.882Z,99986.00
2018-09-10T09:03:19.340Z,99989.00
2018-09-10T09:05:24.170Z,99987.00
2018-09-10T09:07:28.629Z,99987.00
2018-09-10T09:09:33.115Z,99988.00
2018-09-10T09:11:37.991Z,99984.00
2018-09-10T09:13:42.471Z,99983.00
2018-09-10T09:15:47.860Z,99981.00
2018-09-10T09:17:52.306Z,99981.00
2018-09-10T09:19:56.767Z,99982.00
2018-09-10T09:22:01.504Z,99990.00
2018-09-10T09:24:06.005Z,99988.00
2018-09-10T09:26:10.508Z,99997.00
2018-09-10T09:28:15.119Z,99988.00
2018-09-10T09:30:19.710Z,99994.00
2018-09-10T09:32:24.115Z,99996.00
2018-09-10T09:34:33.983Z,99997.00
2018-09-10T09:36:43.728Z,99996.00
2018-09-10T09:38:53.411Z,99996.00
2018-09-10T09:41:03.013Z,99990.00
2018-09-10T09:43:12.611Z,100002.00
2018-09-10T09:45:22.322Z,99999.00
2018-09-10T09:47:26.930Z,99998.00
2018-09-10T09:49:31.471Z,99988.00
2018-09-10T09:51:35.943Z,99993.00
2018-09-10T09:53:40.434Z,99992.00
2018-09-10T09:55:45.187Z,99985.00
2018-09-10T09:57:49.996Z,99988.00
2018-09-10T09:59:54.771Z,99981.00
2018-09-10T10:02:04.406Z,99989.00
2018-09-10T10:04:10.999Z,99995.00
2018-09-10T10:06:15.450Z,99992.00
2018-09-10T10:08:20.132Z,99992.00
2018-09-10T10:10:24.654Z,99988.00
2018-09-10T10:12:29.627Z,99988.00
2018-09-10T10:14:34.370Z,99981.00
2018-09-10T10:16:39.235Z,99993.00
2018-09-10T10:18:43.887Z,99987.00
2018-09-10T10:20:48.414Z,99983.00
2018-09-10T10:22:52.885Z,99982.00
2018-09-10T10:24:57.326Z,99986.00
2018-09-10T10:27:01.919Z,99984.00
2018-09-10T10:29:06.739Z,99988.00
2018-09-10T10:31:11.257Z,99986.00
2018-09-10T10:33:15.719Z,99989.00
2018-09-10T10:35:20.201Z,99998.00
2018-09-10T10:37:24.670Z,99986.00
2018-09-10T10:39:29.862Z,99984.00
2018-09-10T10:41:34.426Z,99985.00
2018-09-10T10:43:38.909Z,99984.00
2018-09-10T10:45:43.460Z,99996.00
2018-09-10T10:47:48.335Z,100002.00
2018-09-10T10:49:52.914Z,99997.00
2018-09-10T10:51:57.465Z,99999.00
2018-09-10T10:54:02.025Z,99998.00
2018-09-10T10:56:06.578Z,100000.00
2018-09-10T10:58:11.281Z,99999.00
2018-09-10T11:00:16.594Z,99996.00
2018-09-10T11:02:21.507Z,99995.00
2018-09-10T11:04:26.256Z,99987.00
2018-09-10T11:06:30.930Z,99987.00
2018-09-10T11:08:35.454Z,100003.00
2018-09-10T11:10:40.954Z,99995.00
2018-09-10T11:12:46.263Z,100001.00
2018-09-10T11:14:50.815Z,99992.00
2018-09-10T11:16:56.677Z,99999.00
2018-09-10T11:19:02.336Z,99995.00
2018-09-10T11:21:06.882Z,100000.00
2018-09-10T11:23:11.435Z,99995.00
2018-09-10T11:25:16.192Z,100004.00
2018-09-10T11:27:20.835Z,100002.00
2018-09-10T11:29:25.325Z,100002.00
2018-09-10T11:31:29.831Z,100010.00
2018-09-10T11:33:34.906Z,100020.00
2018-09-10T11:35:39.363Z,100008.00
2018-09-10T11:37:43.858Z,100000.00
2018-09-10T11:39:49.214Z,100001.00
2018-09-10T11:41:53.678Z,100006.00
2018-09-10T11:43:58.172Z,99999.00
2018-09-10T11:46:02.611Z,99987.00
2018-09-10T11:48:07.348Z,99979.00
2018-09-10T11:50:11.808Z,99983.00
2018-09-10T11:52:17.449Z,99980.00
2018-09-10T11:54:22.026Z,99986.00
2018-09-10T11:56:26.630Z,99997.00
2018-09-10T11:58:31.126Z,99982.00
2018-09-10T12:00:38.152Z,99987.00
2018-09-10T12:02:42.746Z,99986.00
2018-09-10T12:04:47.617Z,99977.00
2018-09-10T12:06:54.012Z,99980.00
2018-09-10T12:09:03.985Z,99984.00
2018-09-10T12:11:12.895Z,99981.00
2018-09-10T12:13:17.662Z,99989.00
2018-09-10T12:15:22.671Z,99994.00
2018-09-10T12:17:28.240Z,99992.00
2018-09-10T12:19:32.878Z,100003.00
2018-09-10T12:21:37.390Z,100008.00
2018-09-10T12:23:41.987Z,99998.00
2018-09-10T12:25:46.658Z,99998.00
2018-09-10T12:27:53.399Z,100000.00
2018-09-10T12:29:57.978Z,100015.00
2018-09-10T12:32:02.940Z,100012.00
2018-09-10T12:34:08.635Z,100018.00
2018-09-10T12:36:13.110Z,100024.00
2018-09-10T12:38:17.629Z,100024.00
2018-09-10T12:40:22.140Z,100031.00
2018-09-10T12:42:26.915Z,100029.00
2018-09-10T12:44:34.362Z,100044.00
2018-09-10T12:46:38.866Z,100039.00
2018-09-10T12:48:43.384Z,100042.00
2018-09-10T12:50:48.510Z,100038.00
2018-09-10T12:52:53.559Z,100041.00
2018-09-10T12:54:58.226Z,100054.00
2018-09-10T12:57:05.295Z,100051.00
2018-09-10T12:59:10.119Z,100051.00
2018-09-10T13:01:14.608Z,100061.00
2018-09-10T13:03:19.090Z,100052.00
2018-09-10T13:05:23.991Z,100061.00
2018-09-10T13:07:28.455Z,100059.00
2018-09-10T13:09:33.164Z,100060.00
2018-09-10T13:11:37.614Z,100058.00
2018-09-10T13:13:42.115Z,100061.00
2018-09-10T13:15:46.578Z,100063.00
2018-09-10T13:17:51.128Z,100079.00
2018-09-10T13:19:55.560Z,100075.00
2018-09-10T13:22:00.019Z,100073.00
2018-09-10T13:24:04.545Z,100066.00
2018-09-10T13:26:08.978Z,100061.00
2018-09-10T13:28:13.423Z,100058.00
2018-09-10T13:30:17.944Z,100064.00
2018-09-10T13:32:22.503Z,100063.00
2018-09-10T13:34:27.156Z,100053.00
2018-09-10T13:36:31.741Z,100057.00
2018-09-10T13:38:36.242Z,100044.00
2018-09-10T13:40:40.776Z,100034.00
2018-09-10T13:42:45.347Z,100031.00
2018-09-10T13:44:49.852Z,100009.00
2018-09-10T13:46:54.299Z,100000.00
2018-09-10T13:48:58.766Z,100018.00
2018-09-10T13:51:03.204Z,100016.00
2018-09-10T13:53:07.947Z,100022.00
2018-09-10T13:55:12.401Z,100019.00
2018-09-10T13:57:16.871Z,100022.00
2018-09-10T13:59:21.372Z,100019.00
2018-09-10T14:01:25.935Z,100017.00
2018-09-10T14:03:30.386Z,100020.00
2018-09-10T14:05:35.499Z,100031.00
2018-09-10T14:07:41.238Z,100048.00
2018-09-10T14:09:45.835Z,100054.00
2018-09-10T14:11:50.608Z,100038.00
2018-09-10T14:13:55.093Z,100048.00
2018-09-10T14:15:59.544Z,100051.00
2018-09-10T14:18:04.038Z,100047.00
2018-09-10T14:20:08.582Z,100032.00
2018-09-10T14:22:13.071Z,100041.00
2018-09-10T14:24:17.582Z,100039.00
2018-09-10T14:26:22.156Z,100029.00
2018-09-10T14:28:26.700Z,100025.00
2018-09-10T14:30:31.210Z,100025.00
2018-09-10T14:32:35.755Z,100010.00
2018-09-10T14:34:40.348Z,100013.00
2018-09-10T14:36:45.182Z,100021.00
2018-09-10T14:38:50.663Z,100022.00
2018-09-10T14:40:55.231Z,100036.00
2018-09-10T14:42:59.747Z,100026.00
2018-09-10T14:45:04.247Z,100034.00
2018-09-10T14:47:08.715Z,100025.00
2018-09-10T14:49:13.165Z,100028.00
2018-09-10T14:51:17.639Z,100032.00
2018-09-10T14:53:22.103Z,100038.00
2018-09-10T14:55:27.026Z,100027.00
2018-09-10T14:57:31.473Z,100022.00
2018-09-10T14:59:35.968Z,100027.00
2018-09-10T15:01:40.448Z,100031.00
2018-09-10T15:03:44.944Z,100032.00
2018-09-10T15:05:52.008Z,100036.00
2018-09-10T15:07:56.551Z,100044.00
2018-09-10T15:10:09.458Z,100055.00
2018-09-10T15:12:14.015Z,100053.00
2018-09-10T15:14:19.663Z,100044.00
2018-09-10T15:16:24.238Z,100040.00
2018-09-10T15:18:29.104Z,100056.00
2018-09-10T15:20:33.636Z,100057.00
2018-09-10T15:22:38.105Z,100073.00
2018-09-10T15:24:42.716Z,100063.00
2018-09-10T15:26:47.192Z,100064.00
2018-09-10T15:28:51.699Z,100064.00
2018-09-10T15:30:56.172Z,100073.00
2018-09-10T15:33:00.634Z,100077.00
2018-09-10T15:35:05.144Z,100065.00
2018-09-10T15:37:09.638Z,100070.00
2018-09-10T15:39:14.118Z,100069.00
2018-09-10T15:41:18.564Z,100064.00
2018-09-10T15:43:23.077Z,100063.00
2018-09-10T15:45:27.518Z,100058.00
2018-09-10T15:47:31.992Z,100064.00
2018-09-10T15:49:36.452Z,100073.00
2018-09-10T15:51:40.935Z,100077.00
2018-09-10T15:53:46.354Z,100075.00
2018-09-10T15:55:50.934Z,100074.00
2018-09-10T15:57:55.410Z,100073.00
2018-09-10T15:59:59.955Z,100066.00
2018-09-10T16:02:04.411Z,100077.00
2018-09-10T16:04:08.904Z,100079.00
2018-09-10T16:06:13.531Z,100062.00
2018-09-10T16:08:18.089Z,100055.00
2018-09-10T16:10:24.774Z,100056.00
2018-09-10T16:12:29.561Z,100056.00
2018-09-10T16:14:34.045Z,100049.00
2018-09-10T16:16:38.512Z,100051.00
2018-09-10T16:18:43.007Z,100054.00
2018-09-10T16:20:49.327Z,100055.00
2018-09-10T16:22:54.446Z,100054.00
2018-09-10T16:24:58.903Z,100040.00
2018-09-10T16:27:03.457Z,100035.00
2018-09-10T16:29:08.678Z,100040.00
2018-09-10T16:31:13.176Z,100056.00
2018-09-10T16:33:17.644Z,100054.00
2018-09-10T16:35:22.147Z,100051.00
2018-09-10T16:37:26.748Z,100041.00
2018-09-10T16:39:31.255Z,100055.00
2018-09-10T16:41:35.830Z,100045.00
2018-09-10T16:43:40.292Z,100051.00
2018-09-10T16:45:44.766Z,100063.00
2018-09-10T16:47:49.196Z,100057.00
2018-09-10T16:49:53.655Z,100050.00
2018-09-10T16:51:58.179Z,100039.00
2018-09-10T16:54:02.655Z,100028.00
2018-09-10T16:56:07.215Z,100022.00
2018-09-10T16:58:11.939Z,100021.00
2018-09-10T17:00:16.397Z,100020.00
2018-09-10T17:02:20.908Z,100032.00
2018-09-10T17:04:25.426Z,100029.00
2018-09-10T17:06:29.929Z,100035.00
2018-09-10T17:08:34.401Z,100038.00
2018-09-10T17:10:42.471Z,100041.00
2018-09-10T17:12:46.999Z,100032.00
2018-09-10T17:14:51.568Z,100032.00
2018-09-10T17:16:56.021Z,100047.00
2018-09-10T17:19:00.628Z,100051.00
2018-09-10T17:21:05.263Z,100057.00
2018-09-10T17:23:10.027Z,100048.00
2018-09-10T17:25:14.571Z,100051.00
2018-09-10T17:27:19.142Z,100035.00
2018-09-10T17:29:23.632Z,100048.00
2018-09-10T17:31:28.150Z,100041.00
2018-09-10T17:33:32.830Z,100040.00
2018-09-10T17:35:37.402Z,100044.00
2018-09-10T17:37:41.987Z,100048.00
2018-09-10T17:39:47.294Z,100049.00
2018-09-10T17:41:51.826Z,100044.00
2018-09-10T17:43:56.327Z,100037.00
2018-09-10T17:46:00.808Z,100042.00
2018-09-10T17:48:05.519Z,100048.00
2018-09-10T17:50:10.463Z,100054.00
2018-09-10T17:52:18.736Z,100054.00
2018-09-10T17:54:23.431Z,100047.00
2018-09-10T17:56:27.906Z,100049.00
2018-09-10T17:58:32.471Z,100056.00
2018-09-10T18:00:40.779Z,100068.00
2018-09-10T18:02:45.207Z,100069.00
2018-09-10T18:04:49.700Z,100063.00
2018-09-10T18:06:54.159Z,100062.00
2018-09-10T18:08:58.734Z,100068.00
2018-09-10T18:11:03.252Z,100074.00
2018-09-10T18:13:08.724Z,100077.00
2018-09-10T18:15:13.258Z,100075.00
2018-09-10T18:17:18.132Z,100087.00
2018-09-10T18:19:22.911Z,100105.00
2018-09-10T18:21:27.434Z,100103.00
2018-09-10T18:23:32.506Z,100101.00
2018-09-10T18:25:37.080Z,100105.00
2018-09-10T18:27:41.740Z,100097.00
2018-09-10T18:29:47.339Z,100105.00
2018-09-10T18:31:51.892Z,100112.00
2018-09-10T18:33:56.457Z,100106.00
2018-09-10T18:36:01.021Z,100107.00
2018-09-10T18:38:05.517Z,100120.00
2018-09-10T18:40:10.038Z,100118.00
2018-09-10T18:42:14.590Z,100123.00
2018-09-10T18:44:19.170Z,100120.00
2018-09-10T18:46:23.686Z,100119.00
2018-09-10T18:48:28.179Z,100113.00
2018-09-10T18:50:33.028Z,100102.00
2018-09-10T18:52:37.482Z,100111.00
2018-09-10T18:54:41.923Z,100104.00
2018-09-10T18:56:46.449Z,100117.00
2018-09-10T18:58:51.011Z,100105.00
2018-09-10T19:00:55.502Z,100108.00
2018-09-10T19:02:59.943Z,100103.00
2018-09-10T19:05:04.414Z,100107.00
2018-09-10T19:07:09.171Z,100092.00
2018-09-10T19:09:13.691Z,100089.00
2018-09-10T19:11:18.157Z,100079.00
2018-09-10T19:13:22.817Z,100055.00
2018-09-10T19:15:27.821Z,100058.00
2018-09-10T19:17:32.385Z,100064.00
2018-09-10T19:19:36.925Z,100060.00
2018-09-10T19:21:42.795Z,100059.00
2018-09-10T19:23:48.712Z,100062.00
2018-09-10T19:25:57.111Z,100053.00
2018-09-10T19:28:02.762Z,100048.00
2018-09-10T19:30:08.582Z,100045.00
2018-09-10T19:32:13.075Z,100040.00
2018-09-10T19:34:17.611Z,100026.00
2018-09-10T19:36:22.123Z,100036.00
2018-09-10T19:38:26.731Z,100027.00
2018-09-10T19:40:31.270Z,100026.00
2018-09-10T19:42:35.754Z,100029.00
2018-09-10T19:44:42.121Z,100038.00
2018-09-10T19:46:46.744Z,100040.00
2018-09-10T19:48:51.331Z,100050.00
2018-09-10T19:50:55.970Z,100044.00
2018-09-10T19:53:00.471Z,100056.00
2018-09-10T19:55:05.285Z,100045.00
2018-09-10T19:57:10.298Z,100034.00
2018-09-10T19:59:14.838Z,100035.00
2018-09-10T20:01:19.302Z,100051.00
2018-09-10T20:03:23.899Z,100059.00
2018-09-10T20:05:28.407Z,100056.00
2018-09-10T20:07:33.223Z,100057.00
2018-09-10T20:09:37.732Z,100051.00
2018-09-10T20:11:42.376Z,100059.00
2018-09-10T20:13:46.849Z,100054.00
2018-09-10T20:15:51.330Z,100065.00
2018-09-10T20:17:55.830Z,100053.00
2018-09-10T20:20:00.323Z,100055.00
2018-09-10T20:22:05.095Z,100045.00
2018-09-10T20:24:09.602Z,100034.00
2018-09-10T20:26:17.064Z,100051.00
2018-09-10T20:28:21.871Z,100048.00
2018-09-10T20:30:26.387Z,100051.00
2018-09-10T20:32:30.811Z,100051.00
2018-09-10T20:34:35.404Z,100059.00
2018-09-10T20:36:40.208Z,100053.00
2018-09-10T20:38:44.722Z,100048.00
2018-09-10T20:40:49.181Z,100052.00
2018-09-10T20:42:53.735Z,100058.00
2018-09-10T20:44:58.975Z,100062.00
2018-09-10T20:47:03.534Z,100059.00
2018-09-10T20:49:08.987Z,100069.00
2018-09-10T20:51:13.526Z,100076.00
2018-09-10T20:53:18.035Z,100077.00
2018-09-10T20:55:22.567Z,100078.00
2018-09-10T20:57:27.223Z,100083.00
2018-09-10T20:59:32.455Z,100077.00
2018-09-10T21:01:37.041Z,100079.00
2018-09-10T21:03:41.525Z,100069.00
2018-09-10T21:05:46.019Z,100068.00
2018-09-10T21:07:50.539Z,100067.00
2018-09-10T21:09:55.001Z,100073.00
2018-09-10T21:11:59.507Z,100066.00
2018-09-10T21:14:05.060Z,100076.00
2018-09-10T21:16:09.559Z,100075.00
2018-09-10T21:18:14.956Z,100067.00
2018-09-10T21:20:21.139Z,100080.00
2018-09-10T21:22:25.705Z,100076.00
2018-09-10T21:24:30.618Z,100069.00
2018-09-10T21:26:35.240Z,100065.00
2018-09-10T21:28:39.663Z,100075.00
2018-09-10T21:30:44.293Z,100066.00
2018-09-10T21:32:49.166Z,100069.00
2018-09-10T21:34:53.716Z,100067.00
2018-09-10T21:36:58.206Z,100060.00
2018-09-10T21:39:02.834Z,100065.00
2018-09-10T21:41:07.309Z,100062.00
2018-09-10T21:43:11.787Z,100073.00
2018-09-10T21:45:16.260Z,100075.00
2018-09-10T21:47:20.751Z,100088.00
2018-09-10T21:49:25.221Z,100101.00
2018-09-10T21:51:29.766Z,100107.00
2018-09-10T21:53:34.225Z,100097.00
2018-09-10T21:55:38.859Z,100087.00
2018-09-10T21:57:43.331Z,100086.00
2018-09-10T21:59:47.894Z,100088.00
2018-09-10T22:01:52.466Z,100086.00
2018-09-10T22:03:57.506Z,100086.00
2018-09-10T22:06:02.026Z,100083.00
2018-09-10T22:08:08.332Z,100086.00
2018-09-10T22:10:12.995Z,100073.00
2018-09-10T22:12:17.401Z,100068.00
2018-09-10T22:14:21.934Z,100063.00
2018-09-10T22:16:26.470Z,100062.00
2018-09-10T22:18:31.127Z,100038.00
2018-09-10T22:20:35.650Z,100044.00
2018-09-10T22:22:40.088Z,100041.00
2018-09-10T22:24:44.616Z,100047.00
2018-09-10T22:26:49.527Z,100050.00
2018-09-10T22:28:54.388Z,100055.00
2018-09-10T22:30:58.936Z,100046.00
2018-09-10T22:33:03.383Z,100042.00
2018-09-10T22:35:08.031Z,100040.00
2018-09-10T22:37:12.509Z,100051.00
2018-09-10T22:39:17.012Z,100053.00
2018-09-10T22:41:21.454Z,100059.00
2018-09-10T22:43:25.934Z,100062.00
2018-09-10T22:45:30.485Z,100051.00
2018-09-10T22:47:35.230Z,100048.00
2018-09-10T22:49:39.662Z,100048.00
2018-09-10T22:51:44.150Z,100047.00
2018-09-10T22:53:49.851Z,100043.00
2018-09-10T22:55:54.318Z,100046.00
2018-09-10T22:57:58.815Z,100048.00
2018-09-10T23:00:03.319Z,100053.00
2018-09-10T23:02:07.791Z,100049.00
2018-09-10T23:04:12.379Z,100058.00
2018-09-10T23:06:16.947Z,100059.00
2018-09-10T23:08:21.431Z,100054.00
2018-09-10T23:10:25.929Z,100062.00
2018-09-10T23:12:30.387Z,100061.00
2018-09-10T23:14:34.843Z,100063.00
2018-09-10T23:16:39.337Z,100065.00
2018-09-10T23:18:43.836Z,100063.00
2018-09-10T23:20:48.312Z,100073.00
2018-09-10T23:22:53.020Z,100063.00
2018-09-10T23:24:57.454Z,100074.00
2018-09-10T23:27:01.960Z,100076.00
2018-09-10T23:29:06.465Z,100074.00
2018-09-10T23:31:11.615Z,100073.00
2018-09-10T23:33:16.083Z,100068.00
2018-09-10T23:35:20.522Z,100059.00
2018-09-10T23:37:24.994Z,100062.00
2018-09-10T23:39:30.148Z,100069.00
2018-09-10T23:41:34.618Z,100060.00
2018-09-10T23:43:39.351Z,100062.00
2018-09-10T23:45:43.825Z,100058.00
2018-09-10T23:47:48.613Z,100069.00
2018-09-10T23:49:53.086Z,100075.00
2018-09-10T23:51:57.638Z,100067.00
2018-09-10T23:54:02.098Z,100075.00
2018-09-10T23:56:06.640Z,100076.00
2018-09-10T23:58:11.067Z,100082.00
